createdAt,value
2022-08-30T00:01:44.338Z,0.00
2022-08-30T00:16:44.953Z,0.00
2022-08-30T00:31:46.820Z,0.00
2022-08-30T00:46:47.842Z,0.00
2022-08-30T01:01:49.834Z,0.00
2022-08-30T01:16:50.363Z,0.00
2022-08-30T01:31:52.231Z,0.00
2022-08-30T01:46:52.828Z,0.00
2022-08-30T02:01:54.703Z,0.00
2022-08-30T02:16:55.329Z,0.00
2022-08-30T02:31:57.178Z,0.00
2022-08-30T02:46:57.742Z,0.00
2022-08-30T03:01:59.616Z,0.00
2022-08-30T03:17:00.209Z,0.00
2022-08-30T03:32:02.384Z,0.00
2022-08-30T03:47:02.884Z,4.00
2022-08-30T04:02:04.791Z,32.00
2022-08-30T04:17:05.915Z,124.00
2022-08-30T04:32:07.863Z,296.00
2022-08-30T04:47:08.871Z,580.00
2022-08-30T05:02:14.328Z,980.00
2022-08-30T05:17:15.807Z,1504.00
2022-08-30T05:32:17.489Z,1988.00
2022-08-30T05:47:17.949Z,2680.00
2022-08-30T06:02:19.910Z,3304.00
2022-08-30T06:17:20.427Z,3716.00
2022-08-30T06:32:22.277Z,3496.00
2022-08-30T06:47:22.887Z,2588.00
2022-08-30T07:02:23.554Z,1736.00
2022-08-30T07:17:24.093Z,2704.00
2022-08-30T07:32:25.938Z,3096.00
2022-08-30T07:47:26.052Z,2136.00
2022-08-30T08:02:27.983Z,4420.00
2022-08-30T08:17:28.494Z,4656.00
2022-08-30T08:32:29.213Z,5696.00
2022-08-30T08:47:29.695Z,6208.00
2022-08-30T09:02:34.393Z,6900.00
2022-08-30T09:17:35.197Z,7736.00
2022-08-30T09:32:37.433Z,8416.00
2022-08-30T09:47:37.593Z,12444.00
2022-08-30T10:02:39.448Z,17440.00
2022-08-30T10:17:40.064Z,23520.00
2022-08-30T10:32:41.434Z,63680.00
2022-08-30T10:47:42.149Z,48416.00
2022-08-30T11:02:44.025Z,30144.00
2022-08-30T11:17:44.665Z,34912.00
2022-08-30T11:32:46.029Z,28928.00
2022-08-30T11:47:46.137Z,35168.00
2022-08-30T12:02:48.666Z,62144.00
2022-08-30T12:17:50.702Z,19616.00
2022-08-30T12:32:52.469Z,16480.00
2022-08-30T12:47:52.566Z,17344.00
2022-08-30T13:02:54.951Z,5744.00
2022-08-30T13:17:55.316Z,7144.00
2022-08-30T13:32:56.565Z,15656.00
2022-08-30T13:47:58.089Z,32768.00
2022-08-30T14:03:00.065Z,25728.00
2022-08-30T14:18:01.305Z,23648.00
2022-08-30T14:33:01.962Z,27488.00
2022-08-30T14:48:02.100Z,22752.00
2022-08-30T15:03:07.918Z,19008.00
2022-08-30T15:18:09.384Z,35808.00
2022-08-30T15:33:10.605Z,35776.00
2022-08-30T15:48:11.169Z,52480.00
2022-08-30T16:03:12.348Z,7764.00
2022-08-30T16:18:14.091Z,5344.00
2022-08-30T16:33:14.645Z,3780.00
2022-08-30T16:48:14.722Z,3456.00
2022-08-30T17:03:16.681Z,2576.00
2022-08-30T17:18:17.202Z,1476.00
2022-08-30T17:33:20.182Z,900.00
2022-08-30T17:48:21.107Z,500.00
2022-08-30T18:03:22.561Z,172.00
2022-08-30T18:18:25.116Z,24.00
2022-08-30T18:33:28.533Z,0.00
2022-08-30T18:48:28.353Z,0.00
2022-08-30T19:03:33.622Z,0.00
2022-08-30T19:18:33.654Z,0.00
2022-08-30T19:33:37.824Z,0.00
2022-08-30T19:48:42.274Z,0.00
2022-08-30T20:03:44.182Z,0.00
2022-08-30T20:18:44.509Z,0.00
2022-08-30T20:33:46.362Z,0.00
2022-08-30T20:48:47.915Z,0.00
2022-08-30T21:03:49.790Z,0.00
2022-08-30T21:18:50.120Z,0.00
2022-08-30T21:33:52.425Z,0.00
2022-08-30T21:48:53.040Z,0.00
2022-08-30T22:03:54.439Z,0.00
2022-08-30T22:18:54.667Z,0.00
2022-08-30T22:33:54.856Z,0.00
2022-08-30T22:48:55.410Z,0.00
2022-08-30T23:03:56.991Z,0.00
2022-08-30T23:18:57.130Z,0.00
2022-08-30T23:33:57.391Z,0.00
2022-08-30T23:48:57.596Z,0.00
